Terminal Aerodrome Forecast
Issued by NWS Grand Junction, CO

Home | Current Version | Previous Version | Text Only | Print | Product List | Glossary On
Versions: 1 2 3 4 5 6 7 8 9 10 11 12 13 14 15
000
FTUS45 KGJT 252334
TAFGJT
TAF
KGJT 252334Z 2600/2624 30006KT P6SM SKC
     FM260300 02005KT P6SM FEW250
     FM261100 08004KT P6SM FEW250
     FM261900 32005KT P6SM FEW250=

USA.gov is the U.S. government's official web portal to all federal, state and local government web resources and services.